Time;durP1;ratioP1;P1;durP2;ratioP2;P2;SDS_P1;SDS_P2;PMS_P1;PMS_P2;Temp;Humidity;BMP_temperature;BMP_pressure;BME280_temperature;BME280_humidity;BME280_pressure;Samples;Min_cycle;Max_cycle;Signal;HPM_P1;HPM_P2
2023/12/05 00:00:28;;;;;;;5.57;5.17;;;1.10;99.90;;;;;;5002176;28;20041;-74
2023/12/05 00:02:54;;;;;;;3.57;3.37;;;1.10;99.90;;;;;;5002589;28;20492;-75
2023/12/05 00:05:19;;;;;;;4.27;4.00;;;1.10;99.90;;;;;;4987091;28;20043;-75
2023/12/05 00:07:45;;;;;;;4.87;4.53;;;1.10;99.90;;;;;;4987343;28;20064;-75
2023/12/05 00:10:10;;;;;;;7.47;6.80;;;1.10;99.90;;;;;;4985758;28;20104;-74
2023/12/05 00:12:36;;;;;;;7.23;6.63;;;1.10;99.90;;;;;;5002941;28;20491;-75
2023/12/05 00:15:02;;;;;;;8.23;4.63;;;1.10;99.90;;;;;;5003272;28;20045;-74
2023/12/05 00:17:27;;;;;;;5.13;4.87;;;1.20;99.90;;;;;;5002813;28;20064;-75
2023/12/05 00:19:53;;;;;;;3.43;3.23;;;1.10;99.90;;;;;;5003346;28;20045;-75
2023/12/05 00:22:18;;;;;;;4.97;3.93;;;1.10;99.90;;;;;;5004709;28;20042;-74
2023/12/05 00:24:44;;;;;;;5.20;4.77;;;1.10;99.90;;;;;;5003763;28;20496;-75
2023/12/05 00:27:09;;;;;;;5.13;4.73;;;1.10;99.90;;;;;;5002136;28;20085;-74
2023/12/05 00:29:37;;;;;;;3.77;3.57;;;1.10;99.90;;;;;;5002577;28;20477;-75
2023/12/05 00:32:02;;;;;;;5.97;3.73;;;1.10;99.90;;;;;;5002019;28;20095;-74
2023/12/05 00:34:28;;;;;;;7.17;5.80;;;1.10;99.90;;;;;;5002638;28;20046;-74
2023/12/05 00:36:53;;;;;;;6.50;5.90;;;1.10;99.90;;;;;;5001859;28;20057;-75
2023/12/05 00:39:19;;;;;;;6.10;5.50;;;1.10;99.90;;;;;;5004158;28;20504;-74
2023/12/05 00:41:46;;;;;;;6.30;5.63;;;1.10;99.90;;;;;;4986374;28;20042;-75
2023/12/05 00:44:12;;;;;;;3.77;3.53;;;1.10;99.90;;;;;;4981621;28;20046;-75
2023/12/05 00:46:38;;;;;;;7.30;6.67;;;1.10;99.90;;;;;;4982192;28;20050;-75
2023/12/05 00:49:03;;;;;;;7.43;5.33;;;1.00;99.90;;;;;;4983865;28;20547;-74
2023/12/05 00:51:29;;;;;;;3.57;3.27;;;1.10;99.90;;;;;;4984204;28;20133;-75
2023/12/05 00:53:55;;;;;;;3.97;3.77;;;1.00;99.90;;;;;;4982148;28;20489;-75
2023/12/05 00:56:20;;;;;;;7.80;6.57;;;1.10;99.90;;;;;;4983473;28;20057;-75
2023/12/05 00:58:46;;;;;;;6.03;5.43;;;1.00;99.90;;;;;;4981957;28;20508;-74
2023/12/05 01:01:12;;;;;;;8.10;6.13;;;1.00;99.90;;;;;;4982373;28;20085;-74
2023/12/05 01:03:37;;;;;;;3.97;3.67;;;1.00;99.90;;;;;;4981920;28;20082;-74
2023/12/05 01:06:03;;;;;;;6.47;5.63;;;1.00;99.90;;;;;;4981854;28;20035;-75
2023/12/05 01:08:29;;;;;;;4.57;4.17;;;1.10;99.90;;;;;;4990514;28;20049;-74
2023/12/05 01:10:54;;;;;;;10.23;5.17;;;1.00;99.90;;;;;;5001454;28;20046;-74
2023/12/05 01:13:20;;;;;;;6.07;5.47;;;1.00;99.90;;;;;;4990764;28;20046;-75
2023/12/05 01:15:46;;;;;;;5.40;4.93;;;1.00;99.90;;;;;;4997886;28;20507;-74
2023/12/05 01:18:11;;;;;;;6.23;5.57;;;1.00;99.90;;;;;;4997923;28;20471;-74
2023/12/05 01:20:37;;;;;;;4.67;4.30;;;1.00;99.90;;;;;;4980580;28;20046;-74
2023/12/05 01:23:02;;;;;;;6.53;4.70;;;1.00;99.90;;;;;;4983165;28;20584;-74
2023/12/05 01:25:28;;;;;;;6.73;6.13;;;1.00;99.90;;;;;;4999588;28;20459;-74
2023/12/05 01:27:54;;;;;;;6.00;5.60;;;1.00;99.90;;;;;;5000750;28;20471;-75
2023/12/05 01:30:20;;;;;;;6.80;6.20;;;1.00;99.90;;;;;;5000041;28;20042;-75
2023/12/05 01:32:45;;;;;;;7.30;5.27;;;1.00;99.90;;;;;;5002743;28;20129;-75
2023/12/05 01:35:11;;;;;;;9.33;5.47;;;1.00;99.90;;;;;;5000752;28;20040;-74
2023/12/05 01:37:38;;;;;;;5.90;5.50;;;1.00;99.90;;;;;;5002147;28;20743;-74
2023/12/05 01:40:05;;;;;;;5.20;4.77;;;1.00;99.90;;;;;;5002665;28;20050;-74
2023/12/05 01:42:38;;;;;;;5.97;5.33;;;1.00;99.90;;;;;;5002282;28;20080;-75
2023/12/05 01:45:08;;;;;;;4.60;4.20;;;1.00;99.90;;;;;;5001243;28;20052;-74
2023/12/05 01:47:35;;;;;;;5.30;4.83;;;1.00;99.90;;;;;;5001284;28;20049;-75
2023/12/05 01:50:03;;;;;;;3.70;3.50;;;1.00;99.90;;;;;;5001968;28;20056;-74
2023/12/05 01:52:29;;;;;;;5.83;5.37;;;1.00;99.90;;;;;;5000603;28;20045;-75
2023/12/05 01:54:55;;;;;;;9.33;6.83;;;1.00;99.90;;;;;;4985548;28;20553;-74
2023/12/05 01:57:20;;;;;;;6.10;5.50;;;1.00;99.90;;;;;;4982831;28;20499;-75
2023/12/05 01:59:46;;;;;;;7.37;6.57;;;1.00;99.90;;;;;;4982175;28;20529;-74
2023/12/05 02:02:12;;;;;;;6.40;4.53;;;1.00;99.90;;;;;;4965082;28;20125;-75
2023/12/05 02:04:39;;;;;;;8.83;7.03;;;1.00;99.90;;;;;;4982825;28;20108;-75
2023/12/05 02:07:06;;;;;;;8.37;7.77;;;1.00;99.90;;;;;;4980838;28;20444;-74
2023/12/05 02:09:32;;;;;;;3.83;3.57;;;1.00;99.90;;;;;;4998996;28;20153;-75
2023/12/05 02:11:57;;;;;;;9.43;6.70;;;1.00;99.90;;;;;;5001977;28;20141;-74
2023/12/05 02:14:24;;;;;;;4.53;4.13;;;1.00;99.90;;;;;;5001306;28;20069;-75
2023/12/05 02:17:19;;;;;;;6.10;5.57;;;0.90;99.90;;;;;;5000230;28;20053;-74
2023/12/05 02:20:01;;;;;;;5.40;4.97;;;0.90;99.90;;;;;;4985406;28;20076;-74
2023/12/05 02:23:02;;;;;;;5.23;4.87;;;0.90;99.90;;;;;;5000584;28;20034;-74
2023/12/05 02:25:46;;;;;;;8.43;7.60;;;0.90;99.90;;;;;;5000225;28;20053;-75
2023/12/05 02:28:12;;;;;;;5.57;5.17;;;0.90;99.90;;;;;;5000156;28;20117;-74
2023/12/05 02:30:38;;;;;;;11.00;8.10;;;0.90;99.90;;;;;;4982893;28;20156;-74
2023/12/05 02:33:04;;;;;;;7.50;6.57;;;0.90;99.90;;;;;;5003415;28;20135;-75
2023/12/05 02:35:30;;;;;;;9.43;7.13;;;0.90;99.90;;;;;;5004651;28;20046;-75
2023/12/05 02:38:24;;;;;;;5.43;5.10;;;0.90;99.90;;;;;;5004253;28;20050;-75
2023/12/05 02:41:11;;;;;;;7.17;5.20;;;0.90;99.90;;;;;;5004902;28;20440;-75
2023/12/05 02:43:43;;;;;;;7.30;6.70;;;0.90;99.90;;;;;;4983673;28;20080;-75
2023/12/05 02:46:13;;;;;;;8.32;7.55;;;0.90;99.90;;;;;;4996686;28;20725;-74
2023/12/05 02:48:39;;;;;;;6.90;6.20;;;0.90;99.90;;;;;;5004278;28;20045;-75
2023/12/05 02:51:05;;;;;;;7.03;6.53;;;0.90;99.90;;;;;;5003576;28;20038;-75
2023/12/05 02:53:30;;;;;;;8.93;8.30;;;0.90;99.90;;;;;;4990070;28;20041;-75
2023/12/05 02:55:56;;;;;;;8.47;5.13;;;0.90;99.90;;;;;;5005699;28;20103;-74
2023/12/05 02:58:21;;;;;;;6.40;5.97;;;0.90;99.90;;;;;;5004782;28;20524;-74
2023/12/05 03:00:47;;;;;;;7.30;6.60;;;0.90;99.90;;;;;;4989767;28;20047;-75
2023/12/05 03:03:12;;;;;;;6.03;5.63;;;0.90;99.90;;;;;;4986627;28;20037;-74
2023/12/05 03:05:38;;;;;;;9.10;8.50;;;0.90;99.90;;;;;;5004020;28;20046;-74
2023/12/05 03:08:04;;;;;;;11.40;6.80;;;0.90;99.90;;;;;;4999880;28;20030;-75
2023/12/05 03:10:29;;;;;;;8.73;5.90;;;0.90;99.90;;;;;;4993890;28;20073;-74
2023/12/05 03:12:55;;;;;;;9.63;8.73;;;0.90;99.90;;;;;;5004845;28;20545;-75
2023/12/05 03:15:20;;;;;;;7.23;6.63;;;0.90;99.90;;;;;;5003954;28;20072;-75
2023/12/05 03:17:46;;;;;;;7.87;6.43;;;0.90;99.90;;;;;;5005259;28;20050;-75
2023/12/05 03:20:11;;;;;;;7.77;6.97;;;0.90;99.90;;;;;;5003265;28;20030;-74
2023/12/05 03:22:37;;;;;;;9.80;7.47;;;0.90;99.90;;;;;;5005278;28;20531;-75
2023/12/05 03:25:03;;;;;;;6.93;5.53;;;0.90;99.90;;;;;;5002178;28;20038;-75
2023/12/05 03:27:29;;;;;;;6.07;5.57;;;0.90;99.90;;;;;;5004888;28;20104;-75
2023/12/05 03:29:54;;;;;;;7.77;6.97;;;0.90;99.90;;;;;;5002703;28;20059;-75
2023/12/05 03:32:20;;;;;;;9.37;5.83;;;0.90;99.90;;;;;;5004243;28;20038;-75
2023/12/05 03:34:47;;;;;;;8.47;7.47;;;0.90;99.90;;;;;;5004352;28;20077;-75
2023/12/05 03:37:13;;;;;;;7.60;6.90;;;0.90;99.90;;;;;;4986680;28;20464;-75
2023/12/05 03:39:38;;;;;;;7.80;5.90;;;0.90;99.90;;;;;;5004341;28;20150;-75
2023/12/05 03:42:04;;;;;;;7.87;6.97;;;0.90;99.90;;;;;;5002747;28;20081;-75
2023/12/05 03:44:30;;;;;;;10.97;5.83;;;0.90;99.90;;;;;;5001455;28;20042;-75
2023/12/05 03:46:56;;;;;;;7.87;5.73;;;0.90;99.90;;;;;;5004787;28;20037;-75
2023/12/05 03:49:21;;;;;;;6.93;6.53;;;0.90;99.90;;;;;;5004101;28;20556;-75
2023/12/05 03:51:47;;;;;;;7.33;6.63;;;0.90;99.90;;;;;;5003163;28;20050;-74
2023/12/05 03:54:12;;;;;;;19.40;6.83;;;0.90;99.90;;;;;;5004013;28;20116;-75
2023/12/05 03:56:38;;;;;;;6.90;6.17;;;0.90;99.90;;;;;;5003158;28;20061;-74
2023/12/05 03:59:04;;;;;;;9.10;8.30;;;0.90;99.90;;;;;;5001704;28;20042;-75
2023/12/05 04:01:29;;;;;;;7.40;6.07;;;0.90;99.90;;;;;;5003420;28;20053;-75
2023/12/05 04:03:55;;;;;;;7.57;7.00;;;0.90;99.90;;;;;;4986212;28;20045;-74
2023/12/05 04:06:24;;;;;;;6.03;5.60;;;0.90;99.90;;;;;;5004059;28;20069;-74
2023/12/05 04:08:50;;;;;;;12.47;7.70;;;0.90;99.90;;;;;;4985949;28;20050;-75
2023/12/05 04:11:16;;;;;;;9.07;6.83;;;0.90;99.90;;;;;;5004548;28;20037;-74
2023/12/05 04:13:42;;;;;;;7.43;6.03;;;0.90;99.90;;;;;;5003267;28;20095;-74
2023/12/05 04:16:09;;;;;;;7.07;5.90;;;0.90;99.90;;;;;;5001788;28;20132;-74
2023/12/05 04:18:35;;;;;;;7.07;6.50;;;0.80;99.90;;;;;;5002843;28;20049;-75
2023/12/05 04:21:00;;;;;;;10.20;7.17;;;0.80;99.90;;;;;;5001909;28;20048;-75
2023/12/05 04:23:26;;;;;;;9.00;6.43;;;0.80;99.90;;;;;;4986021;28;20403;-74
2023/12/05 04:25:52;;;;;;;14.33;8.63;;;0.90;99.90;;;;;;5002663;28;20078;-75
2023/12/05 04:28:17;;;;;;;9.97;8.93;;;0.80;99.90;;;;;;5002095;28;20734;-75
2023/12/05 04:30:43;;;;;;;10.10;9.10;;;0.80;99.90;;;;;;5003477;28;20053;-74
2023/12/05 04:33:08;;;;;;;6.20;5.30;;;0.80;99.90;;;;;;5002247;28;20033;-75
2023/12/05 04:35:35;;;;;;;9.37;7.33;;;0.80;99.90;;;;;;5002603;28;20191;-74
2023/12/05 04:38:00;;;;;;;10.00;8.63;;;0.80;99.90;;;;;;5003772;28;20037;-75
2023/12/05 04:40:26;;;;;;;5.57;5.03;;;0.90;99.90;;;;;;5001937;28;20050;-75
2023/12/05 04:42:52;;;;;;;6.23;5.73;;;0.80;99.90;;;;;;5002837;28;20038;-75
2023/12/05 04:45:17;;;;;;;10.40;9.27;;;0.80;99.90;;;;;;4985589;28;20081;-74
2023/12/05 04:47:43;;;;;;;7.03;6.33;;;0.80;99.90;;;;;;5002373;28;20042;-74
2023/12/05 04:50:09;;;;;;;8.93;8.03;;;0.80;99.90;;;;;;5001699;28;20121;-75
2023/12/05 04:52:35;;;;;;;6.97;6.43;;;0.80;99.90;;;;;;5002503;28;20193;-75
2023/12/05 04:55:00;;;;;;;8.03;7.07;;;0.80;99.90;;;;;;5002569;28;20049;-75
2023/12/05 04:57:26;;;;;;;13.77;7.87;;;0.80;99.90;;;;;;4985635;28;20038;-75
2023/12/05 04:59:52;;;;;;;10.20;7.13;;;0.80;99.90;;;;;;5002053;28;20117;-74
2023/12/05 05:02:17;;;;;;;7.07;6.40;;;0.80;99.90;;;;;;5003577;28;20042;-74
2023/12/05 05:04:43;;;;;;;8.70;7.77;;;0.80;99.90;;;;;;5003469;28;20536;-75
2023/12/05 05:07:08;;;;;;;8.20;7.40;;;0.80;99.90;;;;;;5002446;28;20045;-75
2023/12/05 05:09:36;;;;;;;8.60;7.43;;;0.80;99.90;;;;;;5001568;28;20110;-75
2023/12/05 05:12:03;;;;;;;7.83;7.13;;;0.80;99.90;;;;;;5002797;28;20084;-74
2023/12/05 05:14:29;;;;;;;6.43;5.90;;;0.80;99.90;;;;;;5002107;28;20050;-74
2023/12/05 05:16:54;;;;;;;9.50;6.63;;;0.80;99.90;;;;;;5001814;28;20104;-75
2023/12/05 05:19:20;;;;;;;6.73;6.33;;;0.80;99.90;;;;;;4985450;28;20126;-75
2023/12/05 05:21:45;;;;;;;7.33;6.63;;;0.80;99.90;;;;;;5001611;28;20050;-75
2023/12/05 05:24:11;;;;;;;7.40;6.67;;;0.80;99.90;;;;;;5001476;28;20053;-74
2023/12/05 05:26:36;;;;;;;6.43;5.93;;;0.80;99.90;;;;;;5002826;28;20034;-74
2023/12/05 05:29:03;;;;;;;7.03;6.33;;;0.80;99.90;;;;;;5002070;28;20042;-75
2023/12/05 05:31:28;;;;;;;8.30;6.50;;;0.80;99.90;;;;;;5002185;28;20130;-75
2023/12/05 05:33:54;;;;;;;10.30;9.30;;;0.80;99.90;;;;;;5000936;28;20445;-75
2023/12/05 05:36:19;;;;;;;9.13;6.17;;;0.80;99.90;;;;;;5003336;28;20109;-74
2023/12/05 05:38:45;;;;;;;6.73;6.23;;;0.80;99.90;;;;;;5002969;28;20046;-74
2023/12/05 05:41:11;;;;;;;8.20;7.60;;;0.80;99.90;;;;;;5000353;28;20042;-75
2023/12/05 05:43:37;;;;;;;7.57;6.60;;;0.80;99.90;;;;;;5000626;28;20404;-75
2023/12/05 05:46:02;;;;;;;9.23;8.30;;;0.80;99.90;;;;;;5002000;28;20038;-75
2023/12/05 05:48:28;;;;;;;8.70;7.90;;;0.80;99.90;;;;;;5001532;28;20045;-75
2023/12/05 05:50:53;;;;;;;9.50;7.40;;;0.80;99.90;;;;;;5000907;28;20516;-75
2023/12/05 05:53:19;;;;;;;8.40;6.97;;;0.90;99.90;;;;;;5001337;28;20080;-75
2023/12/05 05:55:44;;;;;;;9.27;8.10;;;0.90;99.90;;;;;;5001101;28;20050;-75
2023/12/05 05:58:11;;;;;;;7.07;6.33;;;0.80;99.90;;;;;;4999293;28;20060;-75
2023/12/05 06:00:36;;;;;;;11.27;6.70;;;0.80;99.90;;;;;;5001093;28;20069;-74
2023/12/05 06:03:03;;;;;;;11.10;6.03;;;0.80;99.90;;;;;;5000514;28;20074;-74
2023/12/05 06:05:29;;;;;;;6.83;6.33;;;0.80;99.90;;;;;;5001115;28;20042;-75
2023/12/05 06:07:55;;;;;;;6.10;5.70;;;0.80;99.90;;;;;;4999351;28;20038;-74
2023/12/05 06:10:20;;;;;;;7.40;6.83;;;0.80;99.90;;;;;;4993237;28;20092;-75
2023/12/05 06:12:46;;;;;;;17.07;7.10;;;0.80;99.90;;;;;;4998676;28;20050;-75
2023/12/05 06:15:12;;;;;;;5.90;5.43;;;0.80;99.90;;;;;;4975696;28;20669;-74
2023/12/05 06:17:37;;;;;;;14.80;6.90;;;0.80;99.90;;;;;;4998874;28;20120;-75
2023/12/05 06:20:05;;;;;;;9.43;7.93;;;0.80;99.90;;;;;;4997150;28;20037;-75
2023/12/05 06:22:31;;;;;;;8.20;6.37;;;0.80;99.90;;;;;;5010828;28;20538;-74
2023/12/05 06:24:56;;;;;;;5.63;4.77;;;0.90;99.90;;;;;;5002279;28;20113;-74
2023/12/05 06:27:22;;;;;;;11.27;10.17;;;0.80;99.90;;;;;;5007308;28;20120;-74
2023/12/05 06:29:47;;;;;;;9.50;8.33;;;0.80;99.90;;;;;;5002140;28;20100;-74
2023/12/05 06:32:13;;;;;;;9.87;8.87;;;0.80;99.90;;;;;;4997335;28;20038;-74
2023/12/05 06:34:39;;;;;;;9.63;7.57;;;0.80;99.90;;;;;;5001270;28;20452;-74
2023/12/05 06:37:04;;;;;;;7.40;6.77;;;0.80;99.90;;;;;;5000477;28;20050;-74
2023/12/05 06:39:30;;;;;;;8.70;7.90;;;0.80;99.90;;;;;;5004391;28;20136;-77
2023/12/05 06:41:55;;;;;;;8.53;7.73;;;0.80;99.90;;;;;;5001310;28;20045;-77
2023/12/05 06:44:21;;;;;;;7.00;6.43;;;0.80;99.90;;;;;;4999682;28;20042;-78
2023/12/05 06:46:46;;;;;;;7.47;6.37;;;0.80;99.90;;;;;;5001514;28;20451;-78
2023/12/05 06:49:12;;;;;;;4.97;4.67;;;0.80;99.90;;;;;;5006005;28;20042;-77
2023/12/05 06:51:39;;;;;;;9.60;7.83;;;0.80;99.90;;;;;;4999995;28;20241;-78
2023/12/05 06:54:05;;;;;;;6.97;6.37;;;0.80;99.90;;;;;;5001264;28;20544;-78
2023/12/05 06:56:31;;;;;;;7.07;6.30;;;0.80;99.90;;;;;;4998939;28;20073;-78
2023/12/05 06:58:56;;;;;;;9.27;6.80;;;0.80;99.90;;;;;;4996227;28;20084;-78
2023/12/05 07:01:22;;;;;;;6.63;6.00;;;0.80;99.90;;;;;;5004111;28;20041;-78
2023/12/05 07:03:47;;;;;;;7.43;6.53;;;0.80;99.90;;;;;;5005930;28;20045;-78
2023/12/05 07:06:13;;;;;;;8.40;7.43;;;0.80;99.90;;;;;;5008597;28;20053;-76
2023/12/05 07:08:39;;;;;;;9.30;6.57;;;0.80;99.90;;;;;;4989067;28;20045;-75
2023/12/05 07:11:05;;;;;;;7.27;6.67;;;0.80;99.90;;;;;;4986621;28;20488;-74
2023/12/05 07:13:31;;;;;;;9.53;8.57;;;0.80;99.90;;;;;;4990592;28;20057;-74
2023/12/05 07:15:56;;;;;;;7.07;6.60;;;0.80;99.90;;;;;;4982270;28;20053;-74
2023/12/05 07:18:22;;;;;;;9.87;7.97;;;0.80;99.90;;;;;;5005476;28;20393;-75
2023/12/05 07:20:48;;;;;;;7.70;5.87;;;0.80;99.90;;;;;;5004669;28;20046;-75
2023/12/05 07:23:13;;;;;;;8.70;8.07;;;0.80;99.90;;;;;;5003609;28;20057;-75
2023/12/05 07:25:39;;;;;;;8.07;7.47;;;0.80;99.90;;;;;;5004970;28;20050;-75
2023/12/05 07:28:04;;;;;;;10.50;7.27;;;0.80;99.90;;;;;;5004926;28;20045;-76
2023/12/05 07:30:31;;;;;;;6.17;5.67;;;0.80;99.90;;;;;;5011714;28;20049;-75
2023/12/05 07:32:56;;;;;;;6.87;6.27;;;0.80;99.90;;;;;;5008378;28;20088;-74
2023/12/05 07:35:22;;;;;;;7.63;6.93;;;0.80;99.90;;;;;;5007707;28;20069;-74
2023/12/05 07:37:49;;;;;;;8.60;7.90;;;0.80;99.90;;;;;;4996388;28;20088;-74
2023/12/05 07:40:15;;;;;;;8.87;8.07;;;0.80;99.90;;;;;;5004238;28;20053;-74
2023/12/05 07:42:40;;;;;;;6.60;5.97;;;0.80;99.90;;;;;;5002997;28;20045;-74
2023/12/05 07:45:07;;;;;;;6.07;5.33;;;0.80;99.90;;;;;;5013681;28;20045;-75
2023/12/05 07:47:33;;;;;;;9.13;8.43;;;0.80;99.90;;;;;;4994919;28;20062;-74
2023/12/05 07:49:59;;;;;;;7.80;7.03;;;0.80;99.90;;;;;;4985346;28;20278;-74
2023/12/05 07:52:25;;;;;;;7.67;7.10;;;0.80;99.90;;;;;;4967996;28;20046;-73
2023/12/05 07:54:51;;;;;;;14.37;7.63;;;0.80;99.90;;;;;;5000073;28;20045;-73
2023/12/05 07:57:22;;;;;;;12.17;8.90;;;0.70;99.90;;;;;;4993851;28;20072;-74
2023/12/05 07:59:50;;;;;;;6.90;4.83;;;0.80;99.90;;;;;;4992927;28;20045;-74
2023/12/05 08:02:16;;;;;;;11.07;6.07;;;0.80;99.90;;;;;;4995935;28;20104;-74
2023/12/05 08:04:42;;;;;;;8.50;7.60;;;0.80;99.90;;;;;;5000723;28;20085;-73
2023/12/05 08:07:07;;;;;;;7.13;6.43;;;0.80;99.90;;;;;;4987606;28;20597;-74
2023/12/05 08:09:33;;;;;;;6.23;5.53;;;0.80;99.90;;;;;;5002466;28;20131;-74
2023/12/05 08:11:59;;;;;;;7.10;6.50;;;0.80;99.90;;;;;;5011619;28;20531;-73
2023/12/05 08:14:25;;;;;;;8.50;7.07;;;0.80;99.90;;;;;;5020322;28;20041;-74
2023/12/05 08:16:50;;;;;;;4.17;3.87;;;0.80;99.90;;;;;;5005068;28;20042;-74
2023/12/05 08:19:16;;;;;;;7.77;6.80;;;0.80;99.90;;;;;;4997255;28;20045;-73
2023/12/05 08:21:42;;;;;;;8.20;7.70;;;0.80;99.90;;;;;;5002259;28;20052;-73
2023/12/05 08:24:07;;;;;;;9.17;8.30;;;0.80;99.90;;;;;;5000095;28;20038;-74
2023/12/05 08:26:33;;;;;;;8.10;7.30;;;0.80;99.90;;;;;;4990492;28;20493;-73
2023/12/05 08:28:58;;;;;;;5.73;5.17;;;0.80;99.90;;;;;;4984539;28;20389;-73
2023/12/05 08:31:24;;;;;;;11.87;8.20;;;0.80;99.90;;;;;;5003600;28;20046;-73
2023/12/05 08:33:50;;;;;;;9.77;8.90;;;0.90;99.90;;;;;;5000180;28;20294;-73
2023/12/05 08:36:15;;;;;;;10.97;10.13;;;0.90;99.90;;;;;;5006325;28;20153;-74
2023/12/05 08:38:41;;;;;;;8.60;7.70;;;0.90;99.90;;;;;;5010391;28;20404;-74
2023/12/05 08:41:07;;;;;;;7.83;7.13;;;0.90;99.90;;;;;;5003576;28;20143;-73
2023/12/05 08:43:33;;;;;;;6.40;5.80;;;0.90;99.90;;;;;;5009857;28;20049;-74
2023/12/05 08:45:59;;;;;;;8.30;6.87;;;0.90;99.90;;;;;;5000391;28;20049;-72
2023/12/05 08:48:25;;;;;;;7.57;6.97;;;0.90;99.90;;;;;;5006198;28;20038;-74
2023/12/05 08:50:51;;;;;;;11.37;6.37;;;0.90;99.90;;;;;;5000003;28;20058;-75
2023/12/05 08:53:16;;;;;;;7.47;6.30;;;0.90;99.90;;;;;;5007694;28;20049;-73
2023/12/05 08:55:43;;;;;;;6.40;5.90;;;0.90;99.90;;;;;;5002106;28;20060;-72
2023/12/05 08:58:09;;;;;;;9.03;7.47;;;0.90;99.90;;;;;;4997972;28;20070;-73
2023/12/05 09:00:35;;;;;;;7.00;6.60;;;1.00;99.90;;;;;;4997775;28;20113;-74
2023/12/05 09:03:00;;;;;;;10.53;6.53;;;0.90;99.90;;;;;;4998488;28;20042;-74
2023/12/05 09:05:26;;;;;;;9.27;8.47;;;1.00;99.90;;;;;;5000513;28;20293;-72
2023/12/05 09:07:52;;;;;;;9.40;6.30;;;1.00;99.90;;;;;;4996463;28;20105;-74
2023/12/05 09:10:17;;;;;;;5.50;5.00;;;1.00;99.90;;;;;;4982571;28;20057;-74
2023/12/05 09:12:43;;;;;;;8.63;7.80;;;1.00;99.90;;;;;;4976657;28;20057;-73
2023/12/05 09:15:09;;;;;;;6.57;5.83;;;1.00;99.90;;;;;;5000817;28;20500;-74
2023/12/05 09:17:34;;;;;;;9.40;8.60;;;1.00;99.90;;;;;;5001577;28;20393;-74
2023/12/05 09:20:00;;;;;;;7.37;6.77;;;1.00;99.90;;;;;;5000329;28;20041;-73
2023/12/05 09:22:26;;;;;;;7.50;7.00;;;1.00;99.90;;;;;;5001249;28;20038;-74
2023/12/05 09:24:51;;;;;;;7.00;6.43;;;1.00;99.90;;;;;;5001133;28;20046;-75
2023/12/05 09:27:17;;;;;;;5.53;4.60;;;0.90;99.90;;;;;;4983105;28;20068;-74
2023/12/05 09:29:42;;;;;;;7.63;7.13;;;1.00;99.90;;;;;;5001096;28;20754;-74
2023/12/05 09:32:08;;;;;;;5.87;5.37;;;1.00;99.90;;;;;;4999774;28;20054;-74
2023/12/05 09:34:33;;;;;;;8.67;7.97;;;1.00;99.90;;;;;;5000476;28;20046;-72
2023/12/05 09:36:59;;;;;;;6.53;6.10;;;1.00;99.90;;;;;;4999380;28;20468;-74
2023/12/05 09:39:25;;;;;;;6.03;5.43;;;1.00;99.90;;;;;;5000831;28;20042;-74
2023/12/05 09:41:52;;;;;;;6.23;5.83;;;1.00;99.90;;;;;;4997433;28;20136;-74
2023/12/05 09:44:23;;;;;;;9.10;8.23;;;1.00;99.90;;;;;;5001581;28;20037;-73
2023/12/05 09:46:54;;;;;;;11.23;6.33;;;1.00;99.90;;;;;;4983999;28;20042;-72
2023/12/05 09:49:25;;;;;;;11.83;8.73;;;1.00;99.90;;;;;;5000110;28;20155;-73
2023/12/05 09:51:51;;;;;;;8.73;7.97;;;1.00;99.90;;;;;;4999217;28;20054;-72
2023/12/05 09:54:17;;;;;;;5.67;5.27;;;1.00;99.90;;;;;;4990495;28;20042;-72
2023/12/05 09:56:42;;;;;;;8.30;7.80;;;1.00;99.90;;;;;;4997406;28;20050;-73
2023/12/05 09:59:10;;;;;;;8.03;7.33;;;1.00;99.90;;;;;;4988214;28;20077;-73
2023/12/05 10:01:36;;;;;;;8.23;7.43;;;1.00;99.90;;;;;;5000605;28;20121;-72
2023/12/05 10:04:04;;;;;;;11.77;8.67;;;1.00;99.90;;;;;;4999289;28;20128;-72
2023/12/05 10:06:32;;;;;;;8.73;7.93;;;1.00;99.90;;;;;;4980019;28;20073;-72
2023/12/05 10:08:59;;;;;;;7.33;6.63;;;1.00;99.90;;;;;;4989223;28;20046;-73
2023/12/05 10:11:29;;;;;;;6.87;6.47;;;1.00;99.90;;;;;;4999887;28;20460;-72
2023/12/05 10:13:55;;;;;;;10.43;7.43;;;1.00;99.90;;;;;;4999055;28;20041;-72
2023/12/05 10:16:22;;;;;;;10.93;8.07;;;1.00;99.90;;;;;;5000500;28;20049;-72
2023/12/05 10:18:48;;;;;;;8.40;7.63;;;1.00;99.90;;;;;;5002534;28;20049;-73
2023/12/05 10:21:13;;;;;;;8.03;7.37;;;1.00;99.90;;;;;;5009322;28;20437;-72
2023/12/05 10:23:39;;;;;;;7.60;7.07;;;0.90;99.90;;;;;;5001212;28;20057;-72
2023/12/05 10:26:05;;;;;;;6.97;6.47;;;1.00;99.90;;;;;;4984635;28;20727;-73
2023/12/05 10:28:31;;;;;;;8.67;7.97;;;1.00;99.90;;;;;;4981150;28;20046;-73
2023/12/05 10:30:57;;;;;;;9.80;8.03;;;1.00;99.90;;;;;;5000709;28;20465;-73
2023/12/05 10:33:23;;;;;;;7.70;6.47;;;1.00;99.90;;;;;;4997943;28;20080;-72
2023/12/05 10:35:48;;;;;;;9.33;6.10;;;1.00;99.90;;;;;;5010164;28;20480;-71
2023/12/05 10:38:20;;;;;;;10.27;9.23;;;1.00;99.90;;;;;;5000294;28;20108;-73
2023/12/05 10:40:56;;;;;;;7.23;6.63;;;1.00;99.90;;;;;;4995119;28;20026;-72
2023/12/05 10:43:23;;;;;;;7.17;6.60;;;1.00;99.90;;;;;;4978955;28;20528;-73
2023/12/05 10:45:49;;;;;;;11.20;8.67;;;1.00;99.90;;;;;;4964372;28;20270;-73
2023/12/05 10:48:17;;;;;;;6.47;5.93;;;1.00;99.90;;;;;;4996397;28;20046;-73
2023/12/05 10:50:47;;;;;;;7.97;6.53;;;1.00;99.90;;;;;;5000517;28;20045;-73
2023/12/05 10:53:14;;;;;;;8.83;7.93;;;1.10;99.90;;;;;;5002001;28;20041;-73
2023/12/05 10:55:40;;;;;;;6.70;6.00;;;1.00;99.90;;;;;;5002948;28;20061;-73
2023/12/05 10:58:07;;;;;;;7.33;6.70;;;1.10;99.90;;;;;;5001041;28;20050;-73
2023/12/05 11:00:34;;;;;;;8.97;8.10;;;1.10;99.90;;;;;;4986696;28;20278;-73
2023/12/05 11:03:03;;;;;;;9.07;8.03;;;1.10;99.90;;;;;;5002917;28;20322;-73
2023/12/05 11:05:30;;;;;;;7.37;6.53;;;1.10;99.90;;;;;;5002903;28;20440;-73
2023/12/05 11:07:57;;;;;;;7.67;7.00;;;1.10;99.90;;;;;;4998511;28;20449;-73
2023/12/05 11:10:23;;;;;;;8.70;7.80;;;1.10;99.90;;;;;;4997130;28;20136;-73
2023/12/05 11:12:50;;;;;;;12.53;8.20;;;1.10;99.90;;;;;;5001805;28;20069;-73
2023/12/05 11:15:18;;;;;;;8.10;7.37;;;1.10;99.90;;;;;;4995660;28;20092;-73
2023/12/05 11:17:58;;;;;;;12.83;7.33;;;1.10;99.90;;;;;;5003743;28;20048;-73
2023/12/05 11:20:43;;;;;;;8.10;7.40;;;1.20;99.90;;;;;;5002670;28;20037;-73
2023/12/05 11:23:39;;;;;;;5.60;5.17;;;1.20;99.90;;;;;;5002533;28;20057;-73
2023/12/05 11:26:39;;;;;;;6.73;6.23;;;1.20;99.90;;;;;;5002004;28;20046;-71
2023/12/05 11:29:32;;;;;;;9.43;8.63;;;1.20;99.90;;;;;;4996768;28;20050;-72
2023/12/05 11:32:19;;;;;;;8.90;6.97;;;1.20;99.90;;;;;;4982868;28;20042;-73
2023/12/05 11:35:16;;;;;;;8.57;7.77;;;1.20;99.90;;;;;;4982800;28;20137;-73
2023/12/05 11:38:11;;;;;;;6.23;5.57;;;1.30;99.90;;;;;;4983377;28;20141;-72
2023/12/05 11:40:37;;;;;;;7.17;5.57;;;1.30;99.90;;;;;;4982853;28;20233;-72
2023/12/05 11:43:10;;;;;;;9.80;8.60;;;1.30;99.90;;;;;;5000898;28;20057;-73
2023/12/05 11:45:45;;;;;;;7.60;6.97;;;1.40;99.90;;;;;;4992146;28;20034;-72
2023/12/05 11:48:21;;;;;;;7.60;6.40;;;1.30;99.90;;;;;;4994601;28;20164;-73
2023/12/05 11:50:50;;;;;;;7.73;7.13;;;1.30;99.90;;;;;;5001194;28;20076;-72
2023/12/05 11:53:18;;;;;;;18.57;9.30;;;1.40;99.90;;;;;;4998823;28;20038;-73
2023/12/05 11:55:47;;;;;;;7.53;6.83;;;1.40;99.90;;;;;;5002894;28;20045;-73
2023/12/05 11:58:33;;;;;;;9.13;8.43;;;1.30;99.90;;;;;;5000112;28;20060;-72
2023/12/05 12:01:09;;;;;;;9.93;9.07;;;1.40;99.90;;;;;;5001338;28;20324;-72
2023/12/05 12:03:53;;;;;;;8.50;7.77;;;1.40;99.90;;;;;;5003229;28;20042;-72
2023/12/05 12:06:20;;;;;;;10.23;9.50;;;1.40;99.90;;;;;;5021775;28;20045;-72
2023/12/05 12:08:52;;;;;;;7.83;7.27;;;1.40;99.90;;;;;;5012475;28;20038;-72
2023/12/05 12:11:18;;;;;;;10.73;9.85;;;1.50;99.90;;;;;;5001816;28;20614;-72
2023/12/05 12:13:44;;;;;;;7.83;7.13;;;1.50;99.90;;;;;;5000373;28;20487;-72
2023/12/05 12:16:16;;;;;;;6.57;6.17;;;1.50;99.90;;;;;;5000761;28;20129;-72
2023/12/05 12:18:42;;;;;;;6.25;5.72;;;1.50;99.90;;;;;;4995185;28;20261;-72
2023/12/05 12:21:08;;;;;;;7.13;6.43;;;1.50;99.90;;;;;;5003125;28;20038;-72
2023/12/05 12:23:33;;;;;;;7.30;6.70;;;1.50;99.90;;;;;;5001868;28;20034;-73
2023/12/05 12:26:00;;;;;;;10.43;9.33;;;1.60;99.90;;;;;;5001817;28;20141;-73
2023/12/05 12:28:28;;;;;;;9.43;7.57;;;1.60;99.90;;;;;;5000056;28;20112;-72
2023/12/05 12:30:58;;;;;;;11.67;10.33;;;1.60;99.90;;;;;;5000602;28;20147;-72
2023/12/05 12:33:46;;;;;;;9.33;8.50;;;1.60;99.90;;;;;;5002961;28;20309;-72
2023/12/05 12:36:13;;;;;;;10.87;7.67;;;1.60;99.90;;;;;;5001856;28;20416;-73
2023/12/05 12:38:40;;;;;;;9.73;8.80;;;1.60;99.90;;;;;;5002303;28;20042;-73
2023/12/05 12:41:08;;;;;;;9.37;6.97;;;1.60;99.90;;;;;;4996963;28;20463;-72
2023/12/05 12:43:34;;;;;;;11.67;8.97;;;1.60;99.90;;;;;;4979512;28;20485;-72
2023/12/05 12:46:00;;;;;;;13.17;8.50;;;1.60;99.90;;;;;;4995104;28;20087;-72
2023/12/05 12:48:26;;;;;;;10.43;9.57;;;1.60;99.90;;;;;;4985896;28;20108;-72
2023/12/05 12:50:53;;;;;;;10.60;9.50;;;1.60;99.90;;;;;;4995810;28;20030;-72
2023/12/05 12:53:19;;;;;;;8.63;7.73;;;1.60;99.90;;;;;;5002514;28;20056;-72
2023/12/05 12:55:45;;;;;;;11.50;10.70;;;1.60;99.90;;;;;;4994858;28;20045;-72